sensor_id;sensor_type;location;lat;lon;timestamp;P1;durP1;ratioP1;P2;durP2;ratioP2
28481;SDS011;15703;49.588;6.260;2024-02-26T00:00:50;2.03;;;1.90;;
28481;SDS011;15703;49.588;6.260;2024-02-26T00:03:12;5.40;;;1.60;;
28481;SDS011;15703;49.588;6.260;2024-02-26T00:05:35;1.50;;;1.40;;
28481;SDS011;15703;49.588;6.260;2024-02-26T00:07:59;1.43;;;1.30;;
28481;SDS011;15703;49.588;6.260;2024-02-26T00:10:26;1.50;;;1.40;;
28481;SDS011;15703;49.588;6.260;2024-02-26T00:12:48;2.50;;;1.43;;
28481;SDS011;15703;49.588;6.260;2024-02-26T00:15:10;1.93;;;1.50;;
28481;SDS011;15703;49.588;6.260;2024-02-26T00:17:33;1.30;;;1.30;;
28481;SDS011;15703;49.588;6.260;2024-02-26T00:19:55;1.30;;;1.20;;
28481;SDS011;15703;49.588;6.260;2024-02-26T00:22:17;1.50;;;1.40;;
28481;SDS011;15703;49.588;6.260;2024-02-26T00:24:40;1.70;;;1.60;;
28481;SDS011;15703;49.588;6.260;2024-02-26T00:27:02;1.90;;;1.63;;
28481;SDS011;15703;49.588;6.260;2024-02-26T00:29:25;2.23;;;1.50;;
28481;SDS011;15703;49.588;6.260;2024-02-26T00:31:47;2.37;;;1.67;;
28481;SDS011;15703;49.588;6.260;2024-02-26T00:34:10;1.40;;;1.40;;
28481;SDS011;15703;49.588;6.260;2024-02-26T00:36:32;1.30;;;1.30;;
28481;SDS011;15703;49.588;6.260;2024-02-26T00:38:55;1.70;;;1.60;;
28481;SDS011;15703;49.588;6.260;2024-02-26T00:41:18;1.97;;;1.60;;
28481;SDS011;15703;49.588;6.260;2024-02-26T00:43:40;2.03;;;1.50;;
28481;SDS011;15703;49.588;6.260;2024-02-26T00:46:04;1.67;;;1.57;;
28481;SDS011;15703;49.588;6.260;2024-02-26T00:48:26;3.03;;;2.43;;
28481;SDS011;15703;49.588;6.260;2024-02-26T00:50:49;2.30;;;2.10;;
28481;SDS011;15703;49.588;6.260;2024-02-26T00:53:11;1.93;;;1.60;;
28481;SDS011;15703;49.588;6.260;2024-02-26T00:55:33;1.70;;;1.60;;
28481;SDS011;15703;49.588;6.260;2024-02-26T00:57:56;1.53;;;1.47;;
28481;SDS011;15703;49.588;6.260;2024-02-26T01:00:18;1.70;;;1.60;;
28481;SDS011;15703;49.588;6.260;2024-02-26T01:02:41;1.60;;;1.50;;
28481;SDS011;15703;49.588;6.260;2024-02-26T01:05:04;1.77;;;1.67;;
28481;SDS011;15703;49.588;6.260;2024-02-26T01:07:27;1.97;;;1.73;;
28481;SDS011;15703;49.588;6.260;2024-02-26T01:09:50;1.60;;;1.50;;
28481;SDS011;15703;49.588;6.260;2024-02-26T01:12:12;1.50;;;1.40;;
28481;SDS011;15703;49.588;6.260;2024-02-26T01:14:34;1.40;;;1.30;;
28481;SDS011;15703;49.588;6.260;2024-02-26T01:16:57;1.60;;;1.50;;
28481;SDS011;15703;49.588;6.260;2024-02-26T01:19:19;1.43;;;1.40;;
28481;SDS011;15703;49.588;6.260;2024-02-26T01:21:42;1.50;;;1.40;;
28481;SDS011;15703;49.588;6.260;2024-02-26T01:24:04;1.50;;;1.40;;
28481;SDS011;15703;49.588;6.260;2024-02-26T01:26:26;1.53;;;1.43;;
28481;SDS011;15703;49.588;6.260;2024-02-26T01:28:49;2.13;;;1.60;;
28481;SDS011;15703;49.588;6.260;2024-02-26T01:31:11;1.70;;;1.60;;
28481;SDS011;15703;49.588;6.260;2024-02-26T01:33:34;1.33;;;1.30;;
28481;SDS011;15703;49.588;6.260;2024-02-26T01:35:56;2.17;;;1.40;;
28481;SDS011;15703;49.588;6.260;2024-02-26T01:38:19;1.20;;;1.20;;
28481;SDS011;15703;49.588;6.260;2024-02-26T01:40:41;1.40;;;1.30;;
28481;SDS011;15703;49.588;6.260;2024-02-26T01:43:03;1.63;;;1.47;;
28481;SDS011;15703;49.588;6.260;2024-02-26T01:45:26;1.40;;;1.30;;
28481;SDS011;15703;49.588;6.260;2024-02-26T01:47:52;1.13;;;1.10;;
28481;SDS011;15703;49.588;6.260;2024-02-26T01:50:15;1.30;;;1.30;;
28481;SDS011;15703;49.588;6.260;2024-02-26T01:52:38;1.83;;;1.20;;
28481;SDS011;15703;49.588;6.260;2024-02-26T01:55:01;1.50;;;1.40;;
28481;SDS011;15703;49.588;6.260;2024-02-26T01:57:24;1.10;;;1.10;;
28481;SDS011;15703;49.588;6.260;2024-02-26T01:59:46;1.10;;;1.10;;
28481;SDS011;15703;49.588;6.260;2024-02-26T02:02:09;1.90;;;1.10;;
28481;SDS011;15703;49.588;6.260;2024-02-26T02:04:32;1.20;;;1.20;;
28481;SDS011;15703;49.588;6.260;2024-02-26T02:06:55;1.40;;;1.30;;
28481;SDS011;15703;49.588;6.260;2024-02-26T02:09:17;1.43;;;1.33;;
28481;SDS011;15703;49.588;6.260;2024-02-26T02:11:40;1.50;;;1.40;;
28481;SDS011;15703;49.588;6.260;2024-02-26T02:14:03;1.40;;;1.30;;
28481;SDS011;15703;49.588;6.260;2024-02-26T02:16:26;1.40;;;1.30;;
28481;SDS011;15703;49.588;6.260;2024-02-26T02:18:48;1.57;;;1.40;;
28481;SDS011;15703;49.588;6.260;2024-02-26T02:21:10;1.57;;;1.33;;
28481;SDS011;15703;49.588;6.260;2024-02-26T02:23:33;1.33;;;1.30;;
28481;SDS011;15703;49.588;6.260;2024-02-26T02:25:56;1.50;;;1.33;;
28481;SDS011;15703;49.588;6.260;2024-02-26T02:28:19;1.30;;;1.20;;
28481;SDS011;15703;49.588;6.260;2024-02-26T02:30:42;1.60;;;1.50;;
28481;SDS011;15703;49.588;6.260;2024-02-26T02:33:04;2.30;;;1.77;;
28481;SDS011;15703;49.588;6.260;2024-02-26T02:35:27;1.67;;;1.53;;
28481;SDS011;15703;49.588;6.260;2024-02-26T02:37:51;1.90;;;1.80;;
28481;SDS011;15703;49.588;6.260;2024-02-26T02:40:14;3.37;;;2.00;;
28481;SDS011;15703;49.588;6.260;2024-02-26T02:42:36;2.80;;;1.80;;
28481;SDS011;15703;49.588;6.260;2024-02-26T02:44:58;1.70;;;1.60;;
28481;SDS011;15703;49.588;6.260;2024-02-26T02:47:21;1.70;;;1.60;;
28481;SDS011;15703;49.588;6.260;2024-02-26T02:49:43;2.80;;;1.80;;
28481;SDS011;15703;49.588;6.260;2024-02-26T02:52:06;1.90;;;1.70;;
28481;SDS011;15703;49.588;6.260;2024-02-26T02:54:28;1.80;;;1.70;;
28481;SDS011;15703;49.588;6.260;2024-02-26T02:56:51;1.70;;;1.60;;
28481;SDS011;15703;49.588;6.260;2024-02-26T02:59:13;3.27;;;2.00;;
28481;SDS011;15703;49.588;6.260;2024-02-26T03:01:36;3.60;;;1.70;;
28481;SDS011;15703;49.588;6.260;2024-02-26T03:03:58;1.40;;;1.30;;
28481;SDS011;15703;49.588;6.260;2024-02-26T03:06:21;2.40;;;1.60;;
28481;SDS011;15703;49.588;6.260;2024-02-26T03:08:44;1.77;;;1.67;;
28481;SDS011;15703;49.588;6.260;2024-02-26T03:11:07;1.90;;;1.67;;
28481;SDS011;15703;49.588;6.260;2024-02-26T03:13:29;1.57;;;1.47;;
28481;SDS011;15703;49.588;6.260;2024-02-26T03:15:52;1.60;;;1.50;;
28481;SDS011;15703;49.588;6.260;2024-02-26T03:18:14;1.90;;;1.80;;
28481;SDS011;15703;49.588;6.260;2024-02-26T03:20:37;1.60;;;1.50;;
28481;SDS011;15703;49.588;6.260;2024-02-26T03:22:59;1.60;;;1.50;;
28481;SDS011;15703;49.588;6.260;2024-02-26T03:25:21;1.50;;;1.40;;
28481;SDS011;15703;49.588;6.260;2024-02-26T03:27:44;1.70;;;1.50;;
28481;SDS011;15703;49.588;6.260;2024-02-26T03:30:06;1.80;;;1.67;;
28481;SDS011;15703;49.588;6.260;2024-02-26T03:32:29;1.60;;;1.50;;
28481;SDS011;15703;49.588;6.260;2024-02-26T03:34:51;1.50;;;1.40;;
28481;SDS011;15703;49.588;6.260;2024-02-26T03:37:17;1.53;;;1.43;;
28481;SDS011;15703;49.588;6.260;2024-02-26T03:39:39;1.40;;;1.30;;
28481;SDS011;15703;49.588;6.260;2024-02-26T03:42:02;1.60;;;1.50;;
28481;SDS011;15703;49.588;6.260;2024-02-26T03:44:24;1.47;;;1.37;;
28481;SDS011;15703;49.588;6.260;2024-02-26T03:46:47;1.60;;;1.50;;
28481;SDS011;15703;49.588;6.260;2024-02-26T03:49:09;1.43;;;1.37;;
28481;SDS011;15703;49.588;6.260;2024-02-26T03:51:31;1.57;;;1.47;;
28481;SDS011;15703;49.588;6.260;2024-02-26T03:53:54;1.30;;;1.30;;
28481;SDS011;15703;49.588;6.260;2024-02-26T03:56:17;1.33;;;1.23;;
28481;SDS011;15703;49.588;6.260;2024-02-26T03:58:39;1.73;;;1.30;;
28481;SDS011;15703;49.588;6.260;2024-02-26T04:01:02;1.83;;;1.40;;
28481;SDS011;15703;49.588;6.260;2024-02-26T04:03:24;1.27;;;1.17;;
28481;SDS011;15703;49.588;6.260;2024-02-26T04:05:48;1.30;;;1.20;;
28481;SDS011;15703;49.588;6.260;2024-02-26T04:08:10;1.30;;;1.17;;
28481;SDS011;15703;49.588;6.260;2024-02-26T04:10:33;1.40;;;1.30;;
28481;SDS011;15703;49.588;6.260;2024-02-26T04:13:02;1.40;;;1.30;;
28481;SDS011;15703;49.588;6.260;2024-02-26T04:15:25;1.73;;;1.60;;
28481;SDS011;15703;49.588;6.260;2024-02-26T04:17:47;1.23;;;1.20;;
28481;SDS011;15703;49.588;6.260;2024-02-26T04:20:14;1.57;;;1.47;;
28481;SDS011;15703;49.588;6.260;2024-02-26T04:22:37;1.50;;;1.40;;
28481;SDS011;15703;49.588;6.260;2024-02-26T04:24:59;1.13;;;1.03;;
28481;SDS011;15703;49.588;6.260;2024-02-26T04:27:22;1.13;;;1.03;;
28481;SDS011;15703;49.588;6.260;2024-02-26T04:29:44;1.13;;;1.13;;
28481;SDS011;15703;49.588;6.260;2024-02-26T04:32:06;1.20;;;1.20;;
28481;SDS011;15703;49.588;6.260;2024-02-26T04:34:29;1.03;;;1.00;;
28481;SDS011;15703;49.588;6.260;2024-02-26T04:36:51;1.40;;;1.30;;
28481;SDS011;15703;49.588;6.260;2024-02-26T04:39:14;1.10;;;1.10;;
28481;SDS011;15703;49.588;6.260;2024-02-26T04:41:36;1.23;;;1.00;;
28481;SDS011;15703;49.588;6.260;2024-02-26T04:43:59;1.13;;;1.10;;
28481;SDS011;15703;49.588;6.260;2024-02-26T04:46:21;1.10;;;1.10;;
28481;SDS011;15703;49.588;6.260;2024-02-26T04:48:44;1.10;;;1.10;;
28481;SDS011;15703;49.588;6.260;2024-02-26T04:51:08;1.20;;;1.10;;
28481;SDS011;15703;49.588;6.260;2024-02-26T04:53:31;1.30;;;1.20;;
28481;SDS011;15703;49.588;6.260;2024-02-26T04:55:53;1.13;;;1.03;;
28481;SDS011;15703;49.588;6.260;2024-02-26T04:58:15;1.03;;;0.97;;
28481;SDS011;15703;49.588;6.260;2024-02-26T05:00:38;0.90;;;0.90;;
28481;SDS011;15703;49.588;6.260;2024-02-26T05:03:00;0.90;;;0.90;;
28481;SDS011;15703;49.588;6.260;2024-02-26T05:05:23;0.97;;;0.97;;
28481;SDS011;15703;49.588;6.260;2024-02-26T05:07:46;1.03;;;0.90;;
28481;SDS011;15703;49.588;6.260;2024-02-26T05:10:08;1.00;;;1.00;;
28481;SDS011;15703;49.588;6.260;2024-02-26T05:12:31;0.97;;;0.97;;
28481;SDS011;15703;49.588;6.260;2024-02-26T05:14:56;1.00;;;1.00;;
28481;SDS011;15703;49.588;6.260;2024-02-26T05:17:18;1.20;;;1.10;;
28481;SDS011;15703;49.588;6.260;2024-02-26T05:19:44;1.43;;;1.10;;
28481;SDS011;15703;49.588;6.260;2024-02-26T05:22:06;1.37;;;1.10;;
28481;SDS011;15703;49.588;6.260;2024-02-26T05:24:29;1.10;;;1.00;;
28481;SDS011;15703;49.588;6.260;2024-02-26T05:26:51;1.73;;;0.90;;
28481;SDS011;15703;49.588;6.260;2024-02-26T05:29:13;1.10;;;0.90;;
28481;SDS011;15703;49.588;6.260;2024-02-26T05:31:36;1.17;;;1.17;;
28481;SDS011;15703;49.588;6.260;2024-02-26T05:33:58;1.00;;;1.00;;
28481;SDS011;15703;49.588;6.260;2024-02-26T05:36:21;1.03;;;1.03;;
28481;SDS011;15703;49.588;6.260;2024-02-26T05:38:44;2.83;;;1.00;;
28481;SDS011;15703;49.588;6.260;2024-02-26T05:41:08;0.93;;;0.80;;
28481;SDS011;15703;49.588;6.260;2024-02-26T05:43:31;0.90;;;0.90;;
28481;SDS011;15703;49.588;6.260;2024-02-26T05:45:54;0.90;;;0.90;;
28481;SDS011;15703;49.588;6.260;2024-02-26T05:48:16;0.97;;;0.97;;
28481;SDS011;15703;49.588;6.260;2024-02-26T05:50:40;2.30;;;0.97;;
28481;SDS011;15703;49.588;6.260;2024-02-26T05:53:03;0.90;;;0.90;;
28481;SDS011;15703;49.588;6.260;2024-02-26T05:55:25;0.87;;;0.80;;
28481;SDS011;15703;49.588;6.260;2024-02-26T05:57:48;0.90;;;0.90;;
28481;SDS011;15703;49.588;6.260;2024-02-26T06:00:11;2.03;;;0.97;;
28481;SDS011;15703;49.588;6.260;2024-02-26T06:02:36;1.17;;;1.00;;
28481;SDS011;15703;49.588;6.260;2024-02-26T06:04:58;1.20;;;1.10;;
28481;SDS011;15703;49.588;6.260;2024-02-26T06:07:20;0.83;;;0.83;;
28481;SDS011;15703;49.588;6.260;2024-02-26T06:09:43;1.07;;;1.07;;
28481;SDS011;15703;49.588;6.260;2024-02-26T06:12:05;1.27;;;0.93;;
28481;SDS011;15703;49.588;6.260;2024-02-26T06:14:28;1.53;;;1.00;;
28481;SDS011;15703;49.588;6.260;2024-02-26T06:16:50;1.00;;;1.00;;
28481;SDS011;15703;49.588;6.260;2024-02-26T06:19:13;1.10;;;0.87;;
28481;SDS011;15703;49.588;6.260;2024-02-26T06:21:35;0.90;;;0.90;;
28481;SDS011;15703;49.588;6.260;2024-02-26T06:23:58;1.13;;;1.10;;
28481;SDS011;15703;49.588;6.260;2024-02-26T06:26:20;1.23;;;1.17;;
28481;SDS011;15703;49.588;6.260;2024-02-26T06:28:43;1.10;;;1.00;;
28481;SDS011;15703;49.588;6.260;2024-02-26T06:31:06;1.00;;;1.00;;
28481;SDS011;15703;49.588;6.260;2024-02-26T06:33:28;1.57;;;1.47;;
28481;SDS011;15703;49.588;6.260;2024-02-26T06:35:51;1.10;;;1.10;;
28481;SDS011;15703;49.588;6.260;2024-02-26T06:38:13;1.10;;;1.10;;
28481;SDS011;15703;49.588;6.260;2024-02-26T06:40:36;1.10;;;1.10;;
28481;SDS011;15703;49.588;6.260;2024-02-26T06:42:59;1.00;;;1.00;;
28481;SDS011;15703;49.588;6.260;2024-02-26T06:45:22;1.17;;;1.10;;
28481;SDS011;15703;49.588;6.260;2024-02-26T06:47:44;0.90;;;0.90;;
28481;SDS011;15703;49.588;6.260;2024-02-26T06:50:07;1.10;;;1.00;;
28481;SDS011;15703;49.588;6.260;2024-02-26T06:52:30;1.37;;;1.30;;
28481;SDS011;15703;49.588;6.260;2024-02-26T06:54:52;1.60;;;1.50;;
28481;SDS011;15703;49.588;6.260;2024-02-26T06:57:14;1.63;;;1.30;;
28481;SDS011;15703;49.588;6.260;2024-02-26T06:59:37;1.10;;;1.07;;
28481;SDS011;15703;49.588;6.260;2024-02-26T07:01:59;1.00;;;0.90;;
28481;SDS011;15703;49.588;6.260;2024-02-26T07:04:22;1.10;;;1.10;;
28481;SDS011;15703;49.588;6.260;2024-02-26T07:06:44;1.00;;;1.00;;
28481;SDS011;15703;49.588;6.260;2024-02-26T07:09:08;1.13;;;1.10;;
28481;SDS011;15703;49.588;6.260;2024-02-26T07:11:30;1.20;;;1.10;;
28481;SDS011;15703;49.588;6.260;2024-02-26T07:13:52;1.20;;;1.20;;
28481;SDS011;15703;49.588;6.260;2024-02-26T07:16:15;1.10;;;1.10;;
28481;SDS011;15703;49.588;6.260;2024-02-26T07:18:41;2.00;;;1.90;;
28481;SDS011;15703;49.588;6.260;2024-02-26T07:21:07;1.10;;;1.10;;
28481;SDS011;15703;49.588;6.260;2024-02-26T07:23:29;1.17;;;1.10;;
28481;SDS011;15703;49.588;6.260;2024-02-26T07:25:52;1.70;;;1.60;;
28481;SDS011;15703;49.588;6.260;2024-02-26T07:28:14;1.50;;;1.40;;
28481;SDS011;15703;49.588;6.260;2024-02-26T07:30:37;1.47;;;1.37;;
28481;SDS011;15703;49.588;6.260;2024-02-26T07:32:59;1.53;;;1.43;;
28481;SDS011;15703;49.588;6.260;2024-02-26T07:35:22;1.50;;;1.40;;
28481;SDS011;15703;49.588;6.260;2024-02-26T07:37:44;1.77;;;1.67;;
28481;SDS011;15703;49.588;6.260;2024-02-26T07:40:10;1.57;;;1.47;;
28481;SDS011;15703;49.588;6.260;2024-02-26T07:42:33;1.50;;;1.40;;
28481;SDS011;15703;49.588;6.260;2024-02-26T07:44:55;1.47;;;1.37;;
28481;SDS011;15703;49.588;6.260;2024-02-26T07:47:18;3.23;;;1.60;;
28481;SDS011;15703;49.588;6.260;2024-02-26T07:49:41;1.47;;;1.37;;
28481;SDS011;15703;49.588;6.260;2024-02-26T07:52:03;2.07;;;1.50;;
28481;SDS011;15703;49.588;6.260;2024-02-26T07:54:25;1.70;;;1.50;;
28481;SDS011;15703;49.588;6.260;2024-02-26T07:56:48;1.47;;;1.37;;
28481;SDS011;15703;49.588;6.260;2024-02-26T07:59:11;1.40;;;1.30;;
28481;SDS011;15703;49.588;6.260;2024-02-26T08:01:34;1.60;;;1.50;;
28481;SDS011;15703;49.588;6.260;2024-02-26T08:03:56;1.60;;;1.50;;
28481;SDS011;15703;49.588;6.260;2024-02-26T08:06:19;1.83;;;1.73;;
28481;SDS011;15703;49.588;6.260;2024-02-26T08:08:42;1.57;;;1.47;;
28481;SDS011;15703;49.588;6.260;2024-02-26T08:11:05;1.37;;;1.30;;
28481;SDS011;15703;49.588;6.260;2024-02-26T08:13:27;1.53;;;1.43;;
28481;SDS011;15703;49.588;6.260;2024-02-26T08:15:50;1.60;;;1.50;;
28481;SDS011;15703;49.588;6.260;2024-02-26T08:18:13;1.50;;;1.40;;
28481;SDS011;15703;49.588;6.260;2024-02-26T08:20:35;1.80;;;1.70;;
28481;SDS011;15703;49.588;6.260;2024-02-26T08:22:58;1.60;;;1.50;;
28481;SDS011;15703;49.588;6.260;2024-02-26T08:25:21;1.60;;;1.50;;
28481;SDS011;15703;49.588;6.260;2024-02-26T08:27:43;2.07;;;1.87;;
28481;SDS011;15703;49.588;6.260;2024-02-26T08:30:06;1.93;;;1.80;;
28481;SDS011;15703;49.588;6.260;2024-02-26T08:32:28;1.60;;;1.50;;
28481;SDS011;15703;49.588;6.260;2024-02-26T08:34:52;1.77;;;1.67;;
28481;SDS011;15703;49.588;6.260;2024-02-26T08:37:14;1.63;;;1.53;;
28481;SDS011;15703;49.588;6.260;2024-02-26T08:39:36;1.70;;;1.60;;
28481;SDS011;15703;49.588;6.260;2024-02-26T08:42:00;1.63;;;1.53;;
28481;SDS011;15703;49.588;6.260;2024-02-26T08:44:23;2.20;;;2.10;;
28481;SDS011;15703;49.588;6.260;2024-02-26T08:46:45;2.07;;;1.83;;
28481;SDS011;15703;49.588;6.260;2024-02-26T08:49:07;2.00;;;1.90;;
28481;SDS011;15703;49.588;6.260;2024-02-26T08:51:30;2.30;;;2.10;;
28481;SDS011;15703;49.588;6.260;2024-02-26T08:53:53;2.20;;;2.00;;
28481;SDS011;15703;49.588;6.260;2024-02-26T08:56:15;2.10;;;1.97;;
28481;SDS011;15703;49.588;6.260;2024-02-26T08:58:41;2.10;;;2.00;;
28481;SDS011;15703;49.588;6.260;2024-02-26T09:01:03;1.93;;;1.53;;
28481;SDS011;15703;49.588;6.260;2024-02-26T09:03:26;2.20;;;2.07;;
28481;SDS011;15703;49.588;6.260;2024-02-26T09:05:48;2.33;;;2.00;;
28481;SDS011;15703;49.588;6.260;2024-02-26T09:08:10;2.77;;;2.53;;
28481;SDS011;15703;49.588;6.260;2024-02-26T09:10:33;2.40;;;2.30;;
28481;SDS011;15703;49.588;6.260;2024-02-26T09:12:55;2.47;;;2.20;;
28481;SDS011;15703;49.588;6.260;2024-02-26T09:15:18;2.33;;;2.10;;
28481;SDS011;15703;49.588;6.260;2024-02-26T09:17:40;1.73;;;1.63;;
28481;SDS011;15703;49.588;6.260;2024-02-26T09:20:03;2.43;;;1.90;;
28481;SDS011;15703;49.588;6.260;2024-02-26T09:22:26;2.17;;;2.07;;
28481;SDS011;15703;49.588;6.260;2024-02-26T09:24:49;2.43;;;2.20;;
28481;SDS011;15703;49.588;6.260;2024-02-26T09:27:14;2.10;;;2.00;;
28481;SDS011;15703;49.588;6.260;2024-02-26T09:29:36;2.10;;;1.93;;
28481;SDS011;15703;49.588;6.260;2024-02-26T09:31:58;2.40;;;2.20;;
28481;SDS011;15703;49.588;6.260;2024-02-26T09:34:22;2.37;;;2.17;;
28481;SDS011;15703;49.588;6.260;2024-02-26T09:36:44;2.43;;;2.23;;
28481;SDS011;15703;49.588;6.260;2024-02-26T09:39:06;2.33;;;2.13;;
28481;SDS011;15703;49.588;6.260;2024-02-26T09:41:33;2.03;;;1.93;;
28481;SDS011;15703;49.588;6.260;2024-02-26T09:43:56;3.03;;;2.57;;
28481;SDS011;15703;49.588;6.260;2024-02-26T09:46:20;2.53;;;2.10;;
28481;SDS011;15703;49.588;6.260;2024-02-26T09:48:43;3.17;;;2.27;;
28481;SDS011;15703;49.588;6.260;2024-02-26T09:51:06;1.87;;;1.77;;
28481;SDS011;15703;49.588;6.260;2024-02-26T09:53:29;2.37;;;2.23;;
28481;SDS011;15703;49.588;6.260;2024-02-26T09:55:58;2.63;;;2.20;;
28481;SDS011;15703;49.588;6.260;2024-02-26T09:58:20;3.03;;;1.93;;
28481;SDS011;15703;49.588;6.260;2024-02-26T10:00:43;2.83;;;2.50;;
28481;SDS011;15703;49.588;6.260;2024-02-26T10:03:09;2.47;;;2.27;;
28481;SDS011;15703;49.588;6.260;2024-02-26T10:05:37;2.80;;;2.60;;
28481;SDS011;15703;49.588;6.260;2024-02-26T10:08:00;3.00;;;2.80;;
28481;SDS011;15703;49.588;6.260;2024-02-26T10:10:23;2.60;;;2.40;;
28481;SDS011;15703;49.588;6.260;2024-02-26T10:12:46;2.70;;;2.50;;
28481;SDS011;15703;49.588;6.260;2024-02-26T10:15:10;2.30;;;2.13;;
28481;SDS011;15703;49.588;6.260;2024-02-26T10:17:32;2.73;;;2.50;;
28481;SDS011;15703;49.588;6.260;2024-02-26T10:19:58;2.90;;;2.67;;
28481;SDS011;15703;49.588;6.260;2024-02-26T10:22:32;2.80;;;2.60;;
28481;SDS011;15703;49.588;6.260;2024-02-26T10:24:55;4.20;;;2.60;;
28481;SDS011;15703;49.588;6.260;2024-02-26T10:27:17;3.90;;;2.80;;
28481;SDS011;15703;49.588;6.260;2024-02-26T10:29:40;2.87;;;2.60;;
28481;SDS011;15703;49.588;6.260;2024-02-26T10:32:04;3.90;;;2.70;;
28481;SDS011;15703;49.588;6.260;2024-02-26T10:34:27;2.73;;;2.53;;
28481;SDS011;15703;49.588;6.260;2024-02-26T10:36:50;3.07;;;2.67;;
28481;SDS011;15703;49.588;6.260;2024-02-26T10:39:15;6.47;;;5.27;;
28481;SDS011;15703;49.588;6.260;2024-02-26T10:41:37;4.47;;;3.50;;
28481;SDS011;15703;49.588;6.260;2024-02-26T10:44:00;3.83;;;3.27;;
28481;SDS011;15703;49.588;6.260;2024-02-26T10:46:23;3.03;;;2.83;;
28481;SDS011;15703;49.588;6.260;2024-02-26T10:48:52;7.67;;;6.80;;
28481;SDS011;15703;49.588;6.260;2024-02-26T10:51:14;5.27;;;3.77;;
28481;SDS011;15703;49.588;6.260;2024-02-26T10:53:37;4.03;;;3.73;;
28481;SDS011;15703;49.588;6.260;2024-02-26T10:56:02;3.37;;;3.17;;
28481;SDS011;15703;49.588;6.260;2024-02-26T10:58:26;2.73;;;2.53;;
28481;SDS011;15703;49.588;6.260;2024-02-26T11:00:51;2.67;;;2.47;;
28481;SDS011;15703;49.588;6.260;2024-02-26T11:03:14;2.63;;;2.42;;
28481;SDS011;15703;49.588;6.260;2024-02-26T11:05:39;3.22;;;2.80;;
28481;SDS011;15703;49.588;6.260;2024-02-26T11:08:02;2.47;;;2.30;;
28481;SDS011;15703;49.588;6.260;2024-02-26T11:10:28;2.10;;;2.00;;
28481;SDS011;15703;49.588;6.260;2024-02-26T11:12:52;2.33;;;2.20;;
28481;SDS011;15703;49.588;6.260;2024-02-26T11:15:15;2.50;;;2.30;;
28481;SDS011;15703;49.588;6.260;2024-02-26T11:17:39;3.07;;;2.20;;
28481;SDS011;15703;49.588;6.260;2024-02-26T11:20:02;2.58;;;2.38;;
28481;SDS011;15703;49.588;6.260;2024-02-26T11:22:25;2.73;;;2.20;;
28481;SDS011;15703;49.588;6.260;2024-02-26T11:24:48;4.72;;;2.70;;
28481;SDS011;15703;49.588;6.260;2024-02-26T11:27:11;2.30;;;2.10;;
28481;SDS011;15703;49.588;6.260;2024-02-26T11:29:37;2.47;;;2.27;;
28481;SDS011;15703;49.588;6.260;2024-02-26T11:32:01;3.30;;;2.43;;
28481;SDS011;15703;49.588;6.260;2024-02-26T11:34:23;2.53;;;2.33;;
28481;SDS011;15703;49.588;6.260;2024-02-26T11:36:47;3.03;;;2.83;;
28481;SDS011;15703;49.588;6.260;2024-02-26T11:39:11;3.00;;;2.23;;
28481;SDS011;15703;49.588;6.260;2024-02-26T11:41:34;2.92;;;2.72;;
28481;SDS011;15703;49.588;6.260;2024-02-26T11:44:00;3.22;;;2.50;;
28481;SDS011;15703;49.588;6.260;2024-02-26T11:48:48;2.58;;;2.40;;
28481;SDS011;15703;49.588;6.260;2024-02-26T11:51:11;2.88;;;2.63;;
28481;SDS011;15703;49.588;6.260;2024-02-26T11:53:34;2.20;;;2.08;;
28481;SDS011;15703;49.588;6.260;2024-02-26T11:58:46;2.92;;;2.72;;
28481;SDS011;15703;49.588;6.260;2024-02-26T12:03:54;2.28;;;2.10;;
28481;SDS011;15703;49.588;6.260;2024-02-26T12:06:17;2.78;;;2.58;;
28481;SDS011;15703;49.588;6.260;2024-02-26T12:08:40;2.90;;;2.58;;
28481;SDS011;15703;49.588;6.260;2024-02-26T12:11:03;2.83;;;2.17;;
28481;SDS011;15703;49.588;6.260;2024-02-26T12:13:29;2.53;;;2.33;;
28481;SDS011;15703;49.588;6.260;2024-02-26T12:15:55;2.47;;;2.28;;
28481;SDS011;15703;49.588;6.260;2024-02-26T12:18:19;2.40;;;2.10;;
28481;SDS011;15703;49.588;6.260;2024-02-26T12:20:42;2.22;;;2.03;;
28481;SDS011;15703;49.588;6.260;2024-02-26T12:23:08;2.55;;;2.10;;
28481;SDS011;15703;49.588;6.260;2024-02-26T12:25:31;2.75;;;2.20;;
28481;SDS011;15703;49.588;6.260;2024-02-26T12:27:54;2.03;;;1.83;;
28481;SDS011;15703;49.588;6.260;2024-02-26T12:30:17;1.80;;;1.70;;
28481;SDS011;15703;49.588;6.260;2024-02-26T12:32:40;3.13;;;2.20;;
28481;SDS011;15703;49.588;6.260;2024-02-26T12:35:03;2.95;;;1.98;;
28481;SDS011;15703;49.588;6.260;2024-02-26T12:37:27;2.20;;;1.90;;
28481;SDS011;15703;49.588;6.260;2024-02-26T12:39:49;1.95;;;1.85;;
28481;SDS011;15703;49.588;6.260;2024-02-26T12:42:12;2.00;;;1.90;;
28481;SDS011;15703;49.588;6.260;2024-02-26T12:44:34;1.95;;;1.83;;
28481;SDS011;15703;49.588;6.260;2024-02-26T12:47:01;1.77;;;1.67;;
28481;SDS011;15703;49.588;6.260;2024-02-26T12:49:26;1.90;;;1.50;;
28481;SDS011;15703;49.588;6.260;2024-02-26T12:51:49;2.05;;;1.70;;
28481;SDS011;15703;49.588;6.260;2024-02-26T12:54:12;2.00;;;1.85;;
28481;SDS011;15703;49.588;6.260;2024-02-26T12:56:35;1.63;;;1.52;;
28481;SDS011;15703;49.588;6.260;2024-02-26T12:58:58;2.65;;;2.20;;
28481;SDS011;15703;49.588;6.260;2024-02-26T13:01:22;3.10;;;1.92;;
28481;SDS011;15703;49.588;6.260;2024-02-26T13:03:45;1.70;;;1.60;;
28481;SDS011;15703;49.588;6.260;2024-02-26T13:06:08;2.10;;;1.90;;
28481;SDS011;15703;49.588;6.260;2024-02-26T13:08:31;2.60;;;1.80;;
28481;SDS011;15703;49.588;6.260;2024-02-26T13:10:54;1.90;;;1.80;;
28481;SDS011;15703;49.588;6.260;2024-02-26T13:13:17;6.55;;;2.45;;
28481;SDS011;15703;49.588;6.260;2024-02-26T13:15:41;1.88;;;1.73;;
28481;SDS011;15703;49.588;6.260;2024-02-26T13:18:10;1.98;;;1.67;;
28481;SDS011;15703;49.588;6.260;2024-02-26T13:20:32;1.75;;;1.65;;
28481;SDS011;15703;49.588;6.260;2024-02-26T13:25:24;1.80;;;1.70;;
28481;SDS011;15703;49.588;6.260;2024-02-26T13:27:46;1.95;;;1.73;;
28481;SDS011;15703;49.588;6.260;2024-02-26T13:30:09;1.65;;;1.55;;
28481;SDS011;15703;49.588;6.260;2024-02-26T13:32:33;2.25;;;1.63;;
28481;SDS011;15703;49.588;6.260;2024-02-26T13:35:09;1.90;;;1.80;;
28481;SDS011;15703;49.588;6.260;2024-02-26T13:37:32;4.20;;;1.92;;
28481;SDS011;15703;49.588;6.260;2024-02-26T13:39:55;3.08;;;2.38;;
28481;SDS011;15703;49.588;6.260;2024-02-26T13:42:18;1.98;;;1.77;;
28481;SDS011;15703;49.588;6.260;2024-02-26T13:44:40;2.78;;;2.03;;
28481;SDS011;15703;49.588;6.260;2024-02-26T13:47:03;5.20;;;2.20;;
28481;SDS011;15703;49.588;6.260;2024-02-26T13:49:26;3.50;;;2.25;;
28481;SDS011;15703;49.588;6.260;2024-02-26T13:51:48;4.55;;;3.70;;
28481;SDS011;15703;49.588;6.260;2024-02-26T13:54:10;5.07;;;3.13;;
28481;SDS011;15703;49.588;6.260;2024-02-26T13:56:35;3.05;;;2.75;;
28481;SDS011;15703;49.588;6.260;2024-02-26T13:58:58;3.63;;;3.08;;
28481;SDS011;15703;49.588;6.260;2024-02-26T14:01:20;3.13;;;2.15;;
28481;SDS011;15703;49.588;6.260;2024-02-26T14:03:43;4.78;;;2.35;;
28481;SDS011;15703;49.588;6.260;2024-02-26T14:06:06;5.18;;;3.72;;
28481;SDS011;15703;49.588;6.260;2024-02-26T14:08:28;6.18;;;4.15;;
28481;SDS011;15703;49.588;6.260;2024-02-26T14:10:51;7.85;;;5.93;;
28481;SDS011;15703;49.588;6.260;2024-02-26T14:13:13;4.97;;;3.38;;
28481;SDS011;15703;49.588;6.260;2024-02-26T14:15:36;3.28;;;2.85;;
28481;SDS011;15703;49.588;6.260;2024-02-26T14:18:00;9.85;;;6.90;;
28481;SDS011;15703;49.588;6.260;2024-02-26T14:20:25;4.93;;;3.38;;
28481;SDS011;15703;49.588;6.260;2024-02-26T14:22:48;3.38;;;2.53;;
28481;SDS011;15703;49.588;6.260;2024-02-26T14:25:11;3.03;;;2.65;;
28481;SDS011;15703;49.588;6.260;2024-02-26T14:27:33;2.28;;;2.05;;
28481;SDS011;15703;49.588;6.260;2024-02-26T14:29:55;4.80;;;2.40;;
28481;SDS011;15703;49.588;6.260;2024-02-26T14:32:18;2.22;;;1.92;;